KGNV/GNV METAR and TAF weather

Enter ICAO airport designator
Station Type Date Time Source
KGNV METAR 2021/09/28 16:53 UTC NOAA

KGNV 281653Z 00000KT 10SM OVC055 28/17 A3009 RMK AO2 SLP187 T02780172


Station Type Date Time Source
KGNV Decoded METAR 2021/09/28 16:53 UTC NOAA

GAINESVILLE REGIONAL AIRPORT , FL, United States (KGNV) 29-42N 082-17W 45M
Sep 28, 2021 - 12:53 PM EDT / 2021.09.28 1653 UTC
Wind: Calm:0
Visibility: 10 mile(s):0
Sky conditions: overcast
Temperature: 82.0 F (27.8 C)
Dew Point: 63.0 F (17.2 C)
Relative Humidity: 52%
Pressure (altimeter): 30.09 in. Hg (1018 hPa)
ob: KGNV 281653Z 00000KT 10SM OVC055 28/17 A3009 RMK AO2 SLP187 T02780172
cycle: 17

Station Type Date Time Source
KGNV TAF 2021/09/28 18:22 UTC NOAA

TAF KGNV 281720Z 2818/2918 VRB03KT P6SM BKN060
FM290300 00000KT P6SM FEW250
TEMPO 2909/2912 3SM BR
FM291500 VRB03KT P6SM SCT040 SCT250

Example: see airport list